Flight Track Log - Related Links

Times and Time Zones

All times are in EDT time to prevent confusion due to time zone crossing. See the SWA588 flight status page for this flight to view local times or setup timezone preferences in your user account.

Time Position Orientation Groundspeed Altitude Reporting Facility
EDT Latitude Longitude Course Direction KTS MPH feet Rate Location/Type
Thu 09:35:22 AM 47.4286 -122.3108 180° South 160 184 1,500  Level Seattle Center
Thu 09:36:32 AM 47.3700 -122.3114 180° South 190 219 3,300 1,603 Climbing Seattle Center
Thu 09:37:33 AM 47.3153 -122.2672 151° Southeast 248 285 5,000 1,869 Climbing Seattle Center
Thu 09:38:34 AM 47.3383 -122.1606 72° East 285 328 7,100 2,529 Climbing Seattle Center
Thu 09:39:34 AM 47.3617 -122.0414 74° East 304 350 10,100 2,579 Climbing Seattle Center
Thu 09:40:35 AM 47.3933 -121.8956 72° East 356 410 12,300 2,459 Climbing Seattle Center
Thu 09:41:36 AM 47.4244 -121.7458 73° East 381 438 15,100 2,607 Climbing Seattle Center
Thu 09:42:37 AM 47.4264 -121.5811 89° East 405 466 17,600 2,479 Climbing Seattle Center
Thu 09:43:37 AM 47.4058 -121.4061 100° East 419 482 20,100 2,380 Climbing Seattle Center
Thu 09:44:38 AM 47.3883 -121.2347 99° East 426 490 22,400 2,115 Climbing Seattle Center
Thu 09:45:39 AM 47.3686 -121.0597 99° East 436 502 24,400 1,770 Climbing Seattle Center
Thu 09:46:40 AM 47.3481 -120.8778 99° East 449 517 26,000 1,537 Climbing Seattle Center
Thu 09:47:40 AM 47.3303 -120.6886 98° East 470 541 27,500 1,488 Climbing Seattle Center
Thu 09:48:41 AM 47.3075 -120.4939 100° East 478 550 29,000 1,525 Climbing Seattle Center
Thu 09:49:42 AM 47.2864 -120.2969 99° East 484 557 30,600 1,770 Climbing Seattle Center
Thu 09:50:43 AM 47.2628 -120.1000 100° East 487 560 32,600 1,721 Climbing Seattle Center
Thu 09:51:44 AM 47.2422 -119.9128 99° East 474 545 34,100 1,240 Climbing Seattle Center
Thu 09:52:44 AM 47.2197 -119.7219 100° East 474 545 35,100 942 Climbing Seattle Center
Thu 09:53:45 AM 47.1933 -119.5281 101° East 482 555 36,000 885 Climbing Seattle Center
Thu 09:54:46 AM 47.1700 -119.3331 100° East 486 559 36,900 492 Climbing Seattle Center
Thu 09:55:47 AM 47.1406 -119.0994 100° East 487 560 37,000 49 Climbing Seattle Center
Thu 09:56:48 AM 47.1167 -118.9050 100° East 487 560 37,000  Level Seattle Center
Thu 09:57:49 AM 47.0928 -118.7083 100° East 491 565 37,000  Level Seattle Center
Thu 09:58:50 AM 47.0678 -118.5147 101° East 488 562 37,000  Level Seattle Center
Thu 09:59:51 AM 47.0389 -118.3153 102° East 499 574 37,000  Level Seattle Center
Thu 10:00:51 AM 47.0136 -118.1214 101° East 490 564 37,000  Level Seattle Center
Thu 10:01:52 AM 46.9875 -117.9275 101° East 489 563 37,000  Level Seattle Center
Thu 10:02:53 AM 46.9597 -117.7306 102° East 496 571 37,000  Level Seattle Center
Thu 10:03:54 AM 46.9322 -117.5300 101° East 506 582 37,000  Level Seattle Center
Thu 10:04:55 AM 46.9036 -117.3319 102° East 504 580 37,000  Level Seattle Center
Thu 10:05:56 AM 46.8753 -117.1325 102° East 505 581 37,000  Level Seattle Center
Thu 10:06:57 AM 46.8417 -116.8958 102° East 502 578 37,000  Level Seattle Center
Thu 10:07:58 AM 46.8128 -116.6975 102° East 504 580 37,000  Level Seattle Center
Thu 10:08:59 AM 46.7831 -116.5028 102° East 497 572 37,000  Level Seattle Center
Thu 10:10:00 AM 46.7536 -116.3069 102° East 498 573 37,000  Level Seattle Center
Thu 10:11:01 AM 46.7247 -116.1128 102° East 494 568 37,000  Level Seattle Center
Thu 10:12:02 AM 46.6942 -115.9156 103° East 498 573 37,000  Level Seattle Center
Thu 10:13:04 AM 46.6636 -115.7214 103° East 495 570 37,000  Level Seattle Center
Thu 10:14:05 AM 46.6319 -115.5261 103° East 497 572 37,000  Level Seattle Center
Thu 10:15:06 AM 46.6017 -115.3297 103° East 500 575 37,000  Level Seattle Center
Thu 10:16:07 AM 46.5631 -115.0953 103° East 498 573 37,000  Level Seattle Center
Thu 10:17:08 AM 46.5322 -114.9103 104° East 503 579 37,000  Level Seattle Center
Thu 10:18:09 AM 46.5006 -114.7158 103° East 500 575 37,000  Level Seattle Center
Thu 10:19:10 AM 46.4667 -114.5178 104° East 504 580 37,000  Level Seattle Center
Thu 10:20:11 AM 46.4339 -114.3239 104° East 501 577 37,000  Level Seattle Center
Thu 10:21:12 AM 46.4000 -114.1311 104° East 498 573 37,000  Level Seattle Center
Thu 10:22:13 AM 46.3669 -113.9381 104° East 497 572 37,000  Level Seattle Center
Thu 10:23:14 AM 46.3258 -113.7069 104° East 497 572 37,000  Level Seattle Center
Thu 10:24:27 AM 46.2853 -113.4764 104° East 495 570 37,000  Level Salt Lake Center
Thu 10:25:29 AM 46.2503 -113.2839 105° East 497 572 37,000  Level Salt Lake Center
Thu 10:26:31 AM 46.2144 -113.0978 105° East 495 570 37,000  Level Salt Lake Center
Thu 10:27:33 AM 46.1797 -112.9039 104° East 498 573 37,000  Level Salt Lake Center
Thu 10:28:35 AM 46.1447 -112.7089 104° East 502 578 37,000  Level Salt Lake Center
Thu 10:29:37 AM 46.1011 -112.4761 105° East 502 578 37,000  Level Salt Lake Center
Thu 10:30:39 AM 46.0642 -112.2814 105° East 503 579 37,000  Level Salt Lake Center
Thu 10:31:41 AM 46.0272 -112.0892 105° East 501 577 37,000  Level Salt Lake Center
Thu 10:32:43 AM 45.9897 -111.8972 106° East 498 573 37,000  Level Salt Lake Center
Thu 10:33:45 AM 45.9519 -111.7033 106° East 502 578 37,000  Level Salt Lake Center
Thu 10:34:47 AM 45.9142 -111.5142 106° East 495 570 37,000  Level Salt Lake Center
Thu 10:35:49 AM 45.8764 -111.3211 106° East 499 574 37,000  Level Salt Lake Center
Thu 10:36:51 AM 45.8403 -111.1156 104° East 515 593 37,000  Level Salt Lake Center
Thu 10:37:53 AM 45.7944 -110.9167 108° East 508 585 37,000  Level Salt Lake Center
Thu 10:38:55 AM 45.7461 -110.6872 107° East 502 578 37,000  Level Salt Lake Center
Thu 10:39:57 AM 45.7058 -110.4950 107° East 495 570 37,000  Level Salt Lake Center
Thu 10:40:59 AM 45.6661 -110.3078 107° East 494 568 37,000  Level Salt Lake Center
Thu 10:42:01 AM 45.6261 -110.1178 107° East 498 573 37,000  Level Salt Lake Center
Thu 10:43:03 AM 45.5858 -109.9294 107° East 498 573 37,000  Level Salt Lake Center
Thu 10:44:06 AM 45.5453 -109.7397 107° East 500 575 37,000  Level Salt Lake Center
Thu 10:45:08 AM 45.5050 -109.5528 107° East 495 570 37,000  Level Salt Lake Center
Thu 10:46:10 AM 45.4547 -109.3300 108° East 492 566 37,000  Level Salt Lake Center
Thu 10:47:12 AM 45.4119 -109.1389 108° East 504 580 37,000  Level Salt Lake Center
Thu 10:48:14 AM 45.3697 -108.9500 108° East 502 578 37,000  Level Salt Lake Center
Thu 10:49:16 AM 45.3269 -108.7608 108° East 503 579 37,000  Level Salt Lake Center
Thu 10:50:18 AM 45.2839 -108.5731 108° East 500 575 37,000  Level Salt Lake Center
Thu 10:51:20 AM 45.2400 -108.3844 108° East 502 578 37,000  Level Salt Lake Center
Thu 10:52:22 AM 45.1961 -108.1939 108° East 505 581 37,000  Level Salt Lake Center
Thu 10:53:24 AM 45.1444 -107.9667 108° East 500 575 37,000  Level Salt Lake Center
Thu 10:54:26 AM 45.0992 -107.7747 108° East 505 581 37,000  Level Salt Lake Center
Thu 10:55:28 AM 45.0547 -107.5847 108° East 503 579 37,000  Level Salt Lake Center
Thu 10:56:30 AM 45.0083 -107.3958 109° East 504 580 37,000  Level Salt Lake Center
Thu 10:57:32 AM 44.9611 -107.2083 110° East 505 581 37,000  Level Salt Lake Center
Thu 10:58:34 AM 44.9167 -107.0231 109° East 500 575 37,000  Level Salt Lake Center
Thu 10:59:36 AM 44.8714 -106.8383 109° East 499 574 37,000  Level Salt Lake Center
Thu 11:00:38 AM 44.8161 -106.6169 109° East 500 575 37,000  Level Salt Lake Center
Thu 11:01:40 AM 44.7708 -106.4328 109° East 499 574 37,000  Level Salt Lake Center
Thu 11:02:12 AM 44.7517 -106.3589 110° East 500 575 37,000  Level Denver Center
Thu 11:03:14 AM 44.7031 -106.1764 110° East 500 575 37,000  Level Denver Center
Thu 11:03:44 AM 44.6761 -106.0644 109° East 501 577 37,000  Level Salt Lake Center
Thu 11:04:46 AM 44.6247 -105.8600 109° East 499 574 37,000  Level Salt Lake Center
Thu 11:05:48 AM 44.5792 -105.6856 110° East 498 573 37,000  Level Salt Lake Center
Thu 11:06:20 AM 44.5517 -105.5931 113° Southeast 497 572 37,000  Level Denver Center
Thu 11:07:22 AM 44.5014 -105.3950 110° East 500 575 37,000  Level Denver Center
Thu 11:07:52 AM 44.4794 -105.3072 109° East 499 574 37,000  Level Salt Lake Center
Thu 11:08:54 AM 44.4322 -105.1325 111° Southeast 500 575 37,000  Level Salt Lake Center
Thu 11:09:26 AM 44.4006 -105.0158 111° Southeast 501 577 37,000  Level Denver Center
Thu 11:10:28 AM 44.3542 -104.8419 110° East 500 575 37,000  Level Denver Center
Thu 11:11:30 AM 44.2989 -104.6406 111° Southeast 498 573 37,000  Level Denver Center
Thu 11:12:32 AM 44.2519 -104.4681 111° Southeast 497 572 37,000  Level Denver Center
Thu 11:13:34 AM 44.1967 -104.2672 111° Southeast 497 572 37,000  Level Denver Center
Thu 11:14:36 AM 44.1481 -104.0947 111° Southeast 499 574 37,000  Level Denver Center
Thu 11:15:38 AM 44.0928 -103.8942 111° Southeast 498 573 37,000  Level Denver Center
Thu 11:16:40 AM 44.0442 -103.7236 112° Southeast 497 572 37,000  Level Denver Center
Thu 11:17:54 AM 43.9956 -103.5517 111° Southeast 497 572 37,000  Level Denver Center
Thu 11:19:09 AM 43.9244 -103.2997 111° Southeast 490 564 37,000  Level Denver Center
Thu 11:20:11 AM 43.8667 -103.1019 112° Southeast 492 566 37,000  Level Denver Center
Thu 11:21:13 AM 43.8169 -102.9325 112° Southeast 494 568 37,000  Level Denver Center
Thu 11:22:15 AM 43.7589 -102.7367 112° Southeast 493 567 37,000  Level Denver Center
Thu 11:23:17 AM 43.7083 -102.5697 113° Southeast 493 567 37,000  Level Denver Center
Thu 11:24:20 AM 43.6506 -102.3756 112° Southeast 491 565 37,000  Level Denver Center
Thu 11:25:22 AM 43.6017 -102.2094 112° Southeast 490 564 37,000  Level Denver Center
Thu 11:26:24 AM 43.5439 -102.0208 113° Southeast 492 566 37,000  Level Denver Center
Thu 11:27:26 AM 43.4931 -101.8506 112° Southeast 485 558 37,000  Level Denver Center
Thu 11:28:28 AM 43.4408 -101.6781 113° Southeast 490 564 37,000  Level Denver Center
Thu 11:29:30 AM 43.3878 -101.5061 113° Southeast 491 565 37,000  Level Denver Center
Thu 11:30:32 AM 43.3247 -101.3025 113° Southeast 485 558 37,000 145 Level Denver Center
Thu 11:31:34 AM 43.2711 -101.1306 113° Southeast 490 564 37,300 581 Climbing Denver Center
Thu 11:32:36 AM 43.2161 -100.9569 113° Southeast 497 572 38,200 823 Climbing Denver Center
Thu 11:33:38 AM 43.1611 -100.7828 113° Southeast 499 574 39,000 387 Climbing Denver Center
Thu 11:34:40 AM 43.1072 -100.6100 113° Southeast 495 570 39,000  Level Denver Center
Thu 11:35:42 AM 43.0508 -100.4328 113° Southeast 504 580 39,000  Level Denver Center
Thu 11:36:44 AM 42.9839 -100.2261 114° Southeast 501 577 39,000  Level Denver Center
Thu 11:37:46 AM 42.9278 -100.0550 114° Southeast 499 574 39,000  Level Denver Center
Thu 11:38:48 AM 42.8725 -99.8839 114° Southeast 496 571 39,000  Level Denver Center
Thu 11:40:16 AM 42.7922 -99.6428 114° Southeast 499 574 39,000  Level Minneapolis Center
Thu 11:41:19 AM 42.7361 -99.4722 114° Southeast 496 571 39,000  Level Minneapolis Center
Thu 11:42:21 AM 42.6786 -99.3019 115° Southeast 495 570 39,000  Level Minneapolis Center
Thu 11:43:23 AM 42.6100 -99.0981 115° Southeast 495 570 39,000  Level Minneapolis Center
Thu 11:44:25 AM 42.5525 -98.9272 115° Southeast 497 572 39,000  Level Minneapolis Center
Thu 11:45:27 AM 42.4944 -98.7575 115° Southeast 496 571 39,000  Level Minneapolis Center
Thu 11:46:29 AM 42.4292 -98.5886 118° Southeast 504 580 39,000  Level Minneapolis Center
Thu 11:47:31 AM 42.3597 -98.4231 120° Southeast 504 580 39,000  Level Minneapolis Center
Thu 11:48:33 AM 42.2892 -98.2586 120° Southeast 506 582 39,000  Level Minneapolis Center
Thu 11:49:35 AM 42.2183 -98.0942 120° Southeast 505 581 39,000  Level Minneapolis Center
Thu 11:50:37 AM 42.1331 -97.8956 120° Southeast 507 583 39,000  Level Minneapolis Center
Thu 11:51:39 AM 42.0628 -97.7339 120° Southeast 505 581 39,000  Level Minneapolis Center
Thu 11:52:41 AM 41.9919 -97.5689 120° Southeast 508 585 39,000  Level Minneapolis Center
Thu 11:53:43 AM 41.9208 -97.4042 120° Southeast 509 586 39,000  Level Minneapolis Center
Thu 11:54:45 AM 41.8489 -97.2411 121° Southeast 509 586 39,000  Level Minneapolis Center
Thu 11:55:47 AM 41.7764 -97.0783 121° Southeast 509 586 39,000  Level Minneapolis Center
Thu 11:56:50 AM 41.6897 -96.8844 121° Southeast 507 583 39,000  Level Minneapolis Center
Thu 11:58:04 AM 41.6156 -96.7228 121° Southeast 508 585 39,000  Level Minneapolis Center
Thu 11:59:06 AM 41.5244 -96.5314 122° Southeast 510 587 39,000  Level Minneapolis Center
Thu 12:00:09 PM 41.4511 -96.3719 121° Southeast 507 583 39,000  Level Minneapolis Center
Thu 12:01:11 PM 41.3706 -96.2028 122° Southeast 512 589 39,000  Level Minneapolis Center
Thu 12:02:25 PM 41.2950 -96.0389 121° Southeast 516 594 39,000  Level Minneapolis Center
Thu 12:03:39 PM 41.1978 -95.8439 123° Southeast 524 603 39,000  Level Minneapolis Center
Thu 12:04:42 PM 41.1019 -95.6414 122° Southeast 516 594 39,000  Level Minneapolis Center
Thu 12:05:44 PM 41.0239 -95.4772 122° Southeast 523 602 39,000  Level Minneapolis Center
Thu 12:06:46 PM 40.9331 -95.2822 122° Southeast 520 598 39,000  Level Minneapolis Center
Thu 12:07:48 PM 40.8542 -95.1225 123° Southeast 520 598 39,000  Level Minneapolis Center
Thu 12:08:49 PM 40.7903 -94.9928 123° Southeast 522 601 39,000  Level Minneapolis Center
Thu 12:09:52 PM 40.6956 -94.8011 123° Southeast 521 600 39,000  Level Minneapolis Center
Thu 12:10:54 PM 40.6169 -94.6422 123° Southeast 519 597 39,000  Level Minneapolis Center
Thu 12:11:56 PM 40.5350 -94.4781 123° Southeast 519 597 39,000  Level Minneapolis Center
Thu 12:12:58 PM 40.4553 -94.3192 123° Southeast 522 601 39,000  Level Minneapolis Center
Thu 12:14:00 PM 40.3758 -94.1608 123° Southeast 524 603 39,000  Level Minneapolis Center
Thu 12:15:00 PM 40.2797 -93.9708 124° Southeast 523 602 39,000  Level Kansas City Center
Thu 12:17:04 PM 40.1183 -93.6558 124° Southeast 528 608 39,000  Level Kansas City Center
Thu 12:18:06 PM 40.0378 -93.4992 124° Southeast 526 605 39,000  Level Kansas City Center
Thu 12:19:08 PM 39.9403 -93.3111 124° Southeast 529 609 39,000  Level Kansas City Center
Thu 12:20:10 PM 39.8606 -93.1569 124° Southeast 524 603 39,000  Level Kansas City Center
Thu 12:21:12 PM 39.7792 -93.0000 124° Southeast 528 608 39,000  Level Kansas City Center
Thu 12:22:14 PM 39.6992 -92.8431 123° Southeast 530 610 39,000  Level Kansas City Center
Thu 12:23:16 PM 39.6158 -92.6875 125° Southeast 532 612 39,000  Level Kansas City Center
Thu 12:24:18 PM 39.5161 -92.5006 125° Southeast 534 615 39,000  Level Kansas City Center
Thu 12:25:20 PM 39.4333 -92.3425 124° Southeast 535 616 39,000  Level Kansas City Center
Thu 12:26:22 PM 39.3503 -92.1864 124° Southeast 534 615 39,000  Level Kansas City Center
Thu 12:27:24 PM 39.2667 -92.0300 125° Southeast 535 616 39,000  Level Kansas City Center
Thu 12:28:26 PM 39.1711 -91.8531 125° Southeast 532 612 39,000  Level Kansas City Center
Thu 12:29:28 PM 39.0853 -91.6981 125° Southeast 530 610 39,000  Level Kansas City Center
Thu 12:30:30 PM 39.0036 -91.5489 125° Southeast 531 611 39,000  Level Kansas City Center
Thu 12:31:32 PM 38.9025 -91.3628 125° Southeast 532 612 39,000  Level Kansas City Center
Thu 12:32:34 PM 38.8167 -91.2094 126° Southeast 533 613 39,000  Level Kansas City Center
Thu 12:33:36 PM 38.7311 -91.0561 126° Southeast 532 612 39,000  Level Kansas City Center
Thu 12:34:38 PM 38.6456 -90.9028 126° Southeast 532 612 39,000  Level Kansas City Center
Thu 12:35:40 PM 38.5594 -90.7511 126° Southeast 533 613 39,000  Level Kansas City Center
Thu 12:36:43 PM 38.4639 -90.5792 125° Southeast 533 613 39,000  Level Kansas City Center
Thu 12:37:45 PM 38.3725 -90.4192 126° Southeast 532 612 39,000  Level Kansas City Center
Thu 12:38:47 PM 38.2892 -90.2700 125° Southeast 526 605 39,000  Level Kansas City Center
Thu 12:39:49 PM 38.2025 -90.1208 126° Southeast 525 604 39,000  Level Kansas City Center
Thu 12:40:51 PM 38.1069 -89.9478 125° Southeast 522 601 39,000  Level Kansas City Center
Thu 12:41:53 PM 38.0136 -89.7850 126° Southeast 528 608 39,000  Level Kansas City Center
Thu 12:42:55 PM 37.9269 -89.6369 127° Southeast 525 604 39,000  Level Kansas City Center
Thu 12:43:57 PM 37.8419 -89.4886 126° Southeast 524 603 39,000  Level Kansas City Center
Thu 12:44:59 PM 37.7606 -89.3433 125° Southeast 524 603 39,000  Level Kansas City Center
Thu 12:46:01 PM 37.6742 -89.2008 127° Southeast 519 597 39,000  Level Kansas City Center
Thu 12:47:03 PM 37.5700 -89.0272 127° Southeast 516 594 39,000  Level Kansas City Center
Thu 12:48:05 PM 37.4850 -88.8825 126° Southeast 514 592 39,000  Level Kansas City Center
Thu 12:49:07 PM 37.3994 -88.7372 127° Southeast 514 592 39,000  Level Kansas City Center
Thu 12:49:50 PM 37.3344 -88.6275 127° Southeast 523 602 39,000  Level Memphis Center
Thu 12:50:50 PM 37.2661 -88.5117 127° Southeast 523 602 39,000  Level Memphis Center
Thu 12:51:50 PM 37.1719 -88.3578 127° Southeast 523 602 39,000  Level Memphis Center
Thu 12:52:50 PM 37.0864 -88.2142 127° Southeast 523 602 39,000  Level Memphis Center
Thu 12:53:50 PM 36.9986 -88.0814 130° Southeast 517 595 39,000  Level Memphis Center
Thu 12:54:50 PM 36.9058 -87.9283 127° Southeast 506 582 39,000  Level Memphis Center
Thu 12:55:50 PM 36.8200 -87.7989 130° Southeast 506 582 39,000  Level Memphis Center
Thu 12:56:50 PM 36.7153 -87.6806 138° Southeast 494 568 39,000  Level Memphis Center
Thu 12:57:50 PM 36.6169 -87.5675 137° Southeast 494 568 39,000  Level Memphis Center
Thu 12:58:50 PM 36.5122 -87.4472 137° Southeast 494 568 39,000  Level Memphis Center
Thu 12:59:50 PM 36.4114 -87.3322 137° Southeast 494 568 39,000 -450 Level Memphis Center
Thu 01:00:50 PM 36.3086 -87.2175 138° Southeast 494 568 38,100 -950 Descending Memphis Center
Thu 01:01:50 PM 36.2053 -87.1006 138° Southeast 494 568 37,100 -950 Descending Memphis Center
Thu 01:02:50 PM 36.1044 -86.9839 137° Southeast 501 577 36,200 -950 Descending Memphis Center
Thu 01:03:50 PM 36.0031 -86.8675 137° Southeast 496 571 35,200 -950 Descending Memphis Center
Thu 01:04:50 PM 35.9061 -86.7564 137° Southeast 485 558 34,300 -950 Descending Memphis Center
Thu 01:05:50 PM 35.8067 -86.6403 137° Southeast 486 559 33,300 -940 Descending Memphis Center
Thu 01:07:36 PM 35.6403 -86.4511 137° Southeast 511 588 31,700 -831 Descending Atlanta Center
Thu 01:08:36 PM 35.5383 -86.3358 137° Southeast 506 582 31,000 -350 Descending Atlanta Center
Thu 01:09:36 PM 35.4258 -86.2128 138° Southeast 500 575 31,000  Level Atlanta Center
Thu 01:10:36 PM 35.3233 -86.1006 138° Southeast 500 575 31,000  Level Atlanta Center
Thu 01:11:36 PM 35.2208 -85.9861 138° Southeast 500 575 31,000  Level Atlanta Center
Thu 01:12:36 PM 35.1183 -85.8797 140° Southeast 495 570 31,000  Level Atlanta Center
Thu 01:13:36 PM 35.0069 -85.7808 144° Southeast 495 570 31,000  Level Atlanta Center
Thu 01:14:36 PM 34.8894 -85.6897 148° Southeast 495 570 31,000 -400 Level Atlanta Center
Thu 01:15:36 PM 34.7756 -85.6017 148° Southeast 495 570 30,200 -1,600 Descending Atlanta Center
Thu 01:16:36 PM 34.6642 -85.5136 147° Southeast 484 557 27,800 -2,400 Descending Atlanta Center
Thu 01:17:36 PM 34.5608 -85.4311 147° Southeast 468 539 25,400 -2,400 Descending Atlanta Center
Thu 01:18:36 PM 34.4572 -85.3489 147° Southeast 456 525 23,000 -2,200 Descending Atlanta Center
Thu 01:20:00 PM 34.3048 -85.2229 154° Southeast  Level FlightAware Approximate
Thu 01:20:36 PM 34.2647 -85.2000 154° Southeast 411 473 18,800  Level Atlanta Center
Thu 01:21:36 PM 34.1756 -85.1311 147° Southeast 404 465 16,700 -2,250 Descending Atlanta Center
Thu 01:22:36 PM 34.0992 -85.0397 135° Southeast 388 447 14,300 -1,650 Descending Atlanta Center
Thu 01:23:36 PM 34.0308 -84.9486 132° Southeast 371 427 13,400 -1,000 Descending Atlanta Center
Thu 01:24:36 PM 33.9606 -84.8628 135° Southeast 365 420 12,300 -700 Descending Atlanta Center
Thu 01:25:36 PM 33.8922 -84.7769 134° Southeast 365 420 12,000 -150 Descending Atlanta Center
Thu 01:26:36 PM 33.8258 -84.6914 133° Southeast 354 407 12,000  Level Atlanta Center
Thu 01:27:36 PM 33.7658 -84.6161 134° Southeast 337 388 12,000 -250 Level Atlanta Center
Thu 01:28:36 PM 33.7264 -84.5308 119° Southeast 308 354 11,500 -1,000 Descending Atlanta Center
Thu 01:29:36 PM 33.7289 -84.4333 88° East 277 319 10,000 -1,500 Descending Atlanta Center
Thu 01:30:36 PM 33.7292 -84.3386 90° East 282 325 8,500 -1,371 Descending Atlanta Center
Thu 01:32:00 PM 33.6333 -84.4167 North  Level FlightAware Approximate
Thu 01:32:53 PM 33.7333 -84.1333 North 273 314 5,500  Level Atlanta TRACON
Thu 01:33:53 PM 33.7333 -84.0500 90° East 239 275 5,000 -263 Descending Atlanta TRACON
Thu 01:34:47 PM 33.7167 -83.9833 107° East 206 237 5,000 53 Level Atlanta TRACON
Thu 01:35:47 PM 33.6667 -83.9833 180° South 198 228 5,100  Climbing Atlanta TRACON
Thu 01:36:53 PM 33.6500 -84.0500 253° West 200 230 5,000 -48 Descending Atlanta TRACON
Thu 01:37:53 PM 33.6500 -84.1167 270° West 203 234 5,000 -200 Level Atlanta TRACON
Thu 01:38:53 PM 33.6500 -84.1833 270° West 203 234 4,600 -700 Descending Atlanta TRACON
Thu 01:39:53 PM 33.6500 -84.2500 270° West 199 229 3,600 -1,000 Descending Atlanta TRACON
Thu 01:40:53 PM 33.6500 -84.3167 270° West 189 217 2,600 -900 Descending Atlanta TRACON
Thu 01:41:53 PM 33.6500 -84.3667 270° West 148 170 1,800 -800 Descending Atlanta TRACON
Thu 01:43:00 PM 33.6333 -84.4167 North  Level FlightAware Approximate
Thu 01:50:00 PM 33.6367 -84.4279 North  Level Estimated
Thu 01:51:00 PM 33.6367 -84.4279 North  Level Estimated
Thu 01:52:00 PM 33.6367 -84.4279 North  Level Estimated

Login

Don't have an account? Register now (free) for customized features, flight alerts, and more!